<?xml version='1.0' encoding='UTF-8'?><gpx version="1.1" creator="JPX - https://github.com/jenetics/jpx" xmlns="http://www.topografix.com/GPX/1/1"><trk><trkseg><trkpt lat="42.5363803" lon="12.668074"><ele>311.0</ele><time>2026-04-30T05:40:13.329Z</time></trkpt><trkpt lat="42.5363936" lon="12.6679689"><ele>311.0</ele><time>2026-04-30T05:40:19.394Z</time></trkpt><trkpt lat="42.5363757" lon="12.6680581"><ele>311.0</ele><time>2026-04-30T05:40:41.771Z</time></trkpt><trkpt lat="42.5364004" lon="12.668185"><ele>311.0</ele><time>2026-04-30T05:40:44.772Z</time></trkpt><trkpt lat="42.5364277" lon="12.6683503"><ele>311.0</ele><time>2026-04-30T05:40:46.777Z</time></trkpt><trkpt lat="42.5364282" lon="12.6684557"><ele>311.0</ele><time>2026-04-30T05:40:47.774Z</time></trkpt><trkpt lat="42.53642" lon="12.6685715"><ele>310.83333333333337</ele><time>2026-04-30T05:40:48.78Z</time></trkpt><trkpt lat="42.5364094" lon="12.6686914"><ele>310.6666666666667</ele><time>2026-04-30T05:40:49.784Z</time></trkpt><trkpt lat="42.5364052" lon="12.6688161"><ele>310.5</ele><time>2026-04-30T05:40:50.784Z</time></trkpt><trkpt lat="42.5364048" lon="12.6689432"><ele>310.3333333333333</ele><time>2026-04-30T05:40:51.782Z</time></trkpt><trkpt lat="42.5364087" lon="12.6690575"><ele>310.16666666666663</ele><time>2026-04-30T05:40:52.78Z</time></trkpt><trkpt lat="42.5364044" lon="12.6691718"><ele>310.0</ele><time>2026-04-30T05:40:53.776Z</time></trkpt><trkpt lat="42.5363976" lon="12.6692843"><ele>310.0</ele><time>2026-04-30T05:40:54.76Z</time></trkpt><trkpt lat="42.5363952" lon="12.6694063"><ele>310.0</ele><time>2026-04-30T05:40:55.761Z</time></trkpt><trkpt lat="42.5364105" lon="12.6695239"><ele>310.0</ele><time>2026-04-30T05:40:56.763Z</time></trkpt><trkpt lat="42.5364314" lon="12.6696372"><ele>310.0</ele><time>2026-04-30T05:40:57.77Z</time></trkpt><trkpt lat="42.5364625" lon="12.6697473"><ele>310.0</ele><time>2026-04-30T05:40:58.763Z</time></trkpt><trkpt lat="42.5364999" lon="12.6698592"><ele>310.0</ele><time>2026-04-30T05:40:59.762Z</time></trkpt><trkpt lat="42.5365447" lon="12.6699847"><ele>311.6</ele><time>2026-04-30T05:41:00.811Z</time></trkpt><trkpt lat="42.536593" lon="12.670113"><ele>313.2</ele><time>2026-04-30T05:41:01.77Z</time></trkpt><trkpt lat="42.5366414" lon="12.6702469"><ele>314.8</ele><time>2026-04-30T05:41:02.765Z</time></trkpt><trkpt lat="42.5367023" lon="12.6703796"><ele>316.4</ele><time>2026-04-30T05:41:03.755Z</time></trkpt><trkpt lat="42.5367775" lon="12.6704969"><ele>318.0</ele><time>2026-04-30T05:41:04.749Z</time></trkpt><trkpt lat="42.536853" lon="12.6705861"><ele>318.0</ele><time>2026-04-30T05:41:05.762Z</time></trkpt><trkpt lat="42.536927" lon="12.6706356"><ele>318.0</ele><time>2026-04-30T05:41:06.749Z</time></trkpt><trkpt lat="42.5369985" lon="12.6706294"><ele>318.0</ele><time>2026-04-30T05:41:07.759Z</time></trkpt><trkpt lat="42.537044" lon="12.6705662"><ele>318.0</ele><time>2026-04-30T05:41:08.747Z</time></trkpt><trkpt lat="42.5370518" lon="12.6704514"><ele>318.0</ele><time>2026-04-30T05:41:09.752Z</time></trkpt><trkpt lat="42.537015" lon="12.6702967"><ele>318.0</ele><time>2026-04-30T05:41:10.747Z</time></trkpt><trkpt lat="42.5369349" lon="12.6701215"><ele>318.0</ele><time>2026-04-30T05:41:11.755Z</time></trkpt><trkpt lat="42.5368721" lon="12.6699104"><ele>318.0</ele><time>2026-04-30T05:41:12.769Z</time></trkpt><trkpt lat="42.5368435" lon="12.6696881"><ele>318.0</ele><time>2026-04-30T05:41:13.762Z</time></trkpt><trkpt lat="42.5368472" lon="12.6694883"><ele>316.4</ele><time>2026-04-30T05:41:14.756Z</time></trkpt><trkpt lat="42.5368794" lon="12.6693134"><ele>314.8</ele><time>2026-04-30T05:41:15.754Z</time></trkpt><trkpt lat="42.5369106" lon="12.6691756"><ele>313.2</ele><time>2026-04-30T05:41:16.752Z</time></trkpt><trkpt lat="42.5369504" lon="12.6690627"><ele>311.6</ele><time>2026-04-30T05:41:17.753Z</time></trkpt><trkpt lat="42.5370126" lon="12.6689681"><ele>310.0</ele><time>2026-04-30T05:41:18.75Z</time></trkpt><trkpt lat="42.5370838" lon="12.6689001"><ele>304.6</ele><time>2026-04-30T05:41:19.763Z</time></trkpt><trkpt lat="42.5371699" lon="12.6688413"><ele>299.2</ele><time>2026-04-30T05:41:20.767Z</time></trkpt><trkpt lat="42.5372794" lon="12.6687689"><ele>293.8</ele><time>2026-04-30T05:41:21.761Z</time></trkpt><trkpt lat="42.5373937" lon="12.6686889"><ele>288.4</ele><time>2026-04-30T05:41:22.761Z</time></trkpt><trkpt lat="42.5374713" lon="12.6686053"><ele>283.0</ele><time>2026-04-30T05:41:23.752Z</time></trkpt><trkpt lat="42.5375576" lon="12.668533"><ele>283.0</ele><time>2026-04-30T05:41:24.762Z</time></trkpt><trkpt lat="42.5376385" lon="12.6684894"><ele>283.0</ele><time>2026-04-30T05:41:25.76Z</time></trkpt><trkpt lat="42.5377279" lon="12.6684901"><ele>283.0</ele><time>2026-04-30T05:41:26.757Z</time></trkpt><trkpt lat="42.5378246" lon="12.6685276"><ele>283.0</ele><time>2026-04-30T05:41:27.745Z</time></trkpt><trkpt lat="42.5379301" lon="12.6685944"><ele>283.0</ele><time>2026-04-30T05:41:28.743Z</time></trkpt><trkpt lat="42.5380532" lon="12.6686797"><ele>279.5</ele><time>2026-04-30T05:41:29.749Z</time></trkpt><trkpt lat="42.5381652" lon="12.6687474"><ele>276.0</ele><time>2026-04-30T05:41:30.782Z</time></trkpt><trkpt lat="42.5382765" lon="12.6687996"><ele>272.5</ele><time>2026-04-30T05:41:31.754Z</time></trkpt><trkpt lat="42.538392" lon="12.6688577"><ele>269.0</ele><time>2026-04-30T05:41:32.765Z</time></trkpt><trkpt lat="42.5385055" lon="12.6689062"><ele>269.0</ele><time>2026-04-30T05:41:33.771Z</time></trkpt><trkpt lat="42.5386119" lon="12.6689355"><ele>269.0</ele><time>2026-04-30T05:41:34.785Z</time></trkpt><trkpt lat="42.538722" lon="12.6689235"><ele>269.0</ele><time>2026-04-30T05:41:35.781Z</time></trkpt><trkpt lat="42.5388274" lon="12.6688765"><ele>269.0</ele><time>2026-04-30T05:41:36.79Z</time></trkpt><trkpt lat="42.5389327" lon="12.6688048"><ele>269.0</ele><time>2026-04-30T05:41:37.782Z</time></trkpt><trkpt lat="42.5390429" lon="12.668742"><ele>266.0</ele><time>2026-04-30T05:41:38.787Z</time></trkpt><trkpt lat="42.5391557" lon="12.6687161"><ele>263.0</ele><time>2026-04-30T05:41:39.78Z</time></trkpt><trkpt lat="42.5392712" lon="12.6687238"><ele>260.0</ele><time>2026-04-30T05:41:40.781Z</time></trkpt><trkpt lat="42.5393895" lon="12.6687476"><ele>257.0</ele><time>2026-04-30T05:41:41.786Z</time></trkpt><trkpt lat="42.5395057" lon="12.6687736"><ele>255.16666666666669</ele><time>2026-04-30T05:41:42.782Z</time></trkpt><trkpt lat="42.5396121" lon="12.6688045"><ele>253.33333333333334</ele><time>2026-04-30T05:41:43.782Z</time></trkpt><trkpt lat="42.5397028" lon="12.6688309"><ele>251.5</ele><time>2026-04-30T05:41:44.781Z</time></trkpt><trkpt lat="42.5397795" lon="12.6688425"><ele>249.66666666666669</ele><time>2026-04-30T05:41:45.782Z</time></trkpt><trkpt lat="42.5398497" lon="12.6688241"><ele>247.83333333333334</ele><time>2026-04-30T05:41:46.776Z</time></trkpt><trkpt lat="42.5399236" lon="12.6687777"><ele>246.0</ele><time>2026-04-30T05:41:47.781Z</time></trkpt><trkpt lat="42.5400024" lon="12.6687313"><ele>246.0</ele><time>2026-04-30T05:41:48.773Z</time></trkpt><trkpt lat="42.5400953" lon="12.668682"><ele>246.0</ele><time>2026-04-30T05:41:49.779Z</time></trkpt><trkpt lat="42.5402083" lon="12.6686395"><ele>246.0</ele><time>2026-04-30T05:41:50.779Z</time></trkpt><trkpt lat="42.540329" lon="12.6686002"><ele>246.0</ele><time>2026-04-30T05:41:51.779Z</time></trkpt><trkpt lat="42.5404505" lon="12.6685589"><ele>242.75</ele><time>2026-04-30T05:41:52.785Z</time></trkpt><trkpt lat="42.5405614" lon="12.668518"><ele>239.5</ele><time>2026-04-30T05:41:53.782Z</time></trkpt><trkpt lat="42.5406797" lon="12.6684727"><ele>236.25</ele><time>2026-04-30T05:41:54.775Z</time></trkpt><trkpt lat="42.5408086" lon="12.668401"><ele>233.0</ele><time>2026-04-30T05:41:55.776Z</time></trkpt><trkpt lat="42.5409333" lon="12.6683387"><ele>233.0</ele><time>2026-04-30T05:41:56.774Z</time></trkpt><trkpt lat="42.5410404" lon="12.6682718"><ele>233.0</ele><time>2026-04-30T05:41:57.77Z</time></trkpt><trkpt lat="42.541138" lon="12.6681955"><ele>233.0</ele><time>2026-04-30T05:41:58.771Z</time></trkpt><trkpt lat="42.5412285" lon="12.6681292"><ele>233.0</ele><time>2026-04-30T05:41:59.768Z</time></trkpt><trkpt lat="42.5413154" lon="12.6680854"><ele>233.0</ele><time>2026-04-30T05:42:00.781Z</time></trkpt><trkpt lat="42.5414246" lon="12.6681008"><ele>230.4</ele><time>2026-04-30T05:42:01.787Z</time></trkpt><trkpt lat="42.5415321" lon="12.6681205"><ele>227.8</ele><time>2026-04-30T05:42:02.763Z</time></trkpt><trkpt lat="42.5416288" lon="12.6681534"><ele>225.2</ele><time>2026-04-30T05:42:03.771Z</time></trkpt><trkpt lat="42.5417311" lon="12.6681891"><ele>222.6</ele><time>2026-04-30T05:42:04.76Z</time></trkpt><trkpt lat="42.5418318" lon="12.6682377"><ele>220.0</ele><time>2026-04-30T05:42:05.772Z</time></trkpt><trkpt lat="42.5419345" lon="12.6682782"><ele>220.0</ele><time>2026-04-30T05:42:06.767Z</time></trkpt><trkpt lat="42.5420285" lon="12.6683286"><ele>220.0</ele><time>2026-04-30T05:42:07.77Z</time></trkpt><trkpt lat="42.5421345" lon="12.6683996"><ele>220.0</ele><time>2026-04-30T05:42:08.761Z</time></trkpt><trkpt lat="42.5422421" lon="12.6684866"><ele>220.0</ele><time>2026-04-30T05:42:09.765Z</time></trkpt><trkpt lat="42.5423645" lon="12.6685766"><ele>216.25</ele><time>2026-04-30T05:42:10.774Z</time></trkpt><trkpt lat="42.5424843" lon="12.6686692"><ele>212.5</ele><time>2026-04-30T05:42:11.768Z</time></trkpt><trkpt lat="42.5425952" lon="12.6687583"><ele>208.75</ele><time>2026-04-30T05:42:12.772Z</time></trkpt><trkpt lat="42.5427075" lon="12.6688461"><ele>205.0</ele><time>2026-04-30T05:42:13.77Z</time></trkpt><trkpt lat="42.5428143" lon="12.6689388"><ele>204.2</ele><time>2026-04-30T05:42:14.772Z</time></trkpt><trkpt lat="42.5429128" lon="12.6690334"><ele>203.4</ele><time>2026-04-30T05:42:15.765Z</time></trkpt><trkpt lat="42.5429902" lon="12.6691293"><ele>202.60000000000002</ele><time>2026-04-30T05:42:16.758Z</time></trkpt><trkpt lat="42.5430579" lon="12.6692149"><ele>201.8</ele><time>2026-04-30T05:42:17.771Z</time></trkpt><trkpt lat="42.5431609" lon="12.6692855"><ele>201.0</ele><time>2026-04-30T05:42:19.766Z</time></trkpt><trkpt lat="42.5432317" lon="12.6692724"><ele>201.0</ele><time>2026-04-30T05:42:20.754Z</time></trkpt><trkpt lat="42.5433145" lon="12.6692401"><ele>201.0</ele><time>2026-04-30T05:42:21.757Z</time></trkpt><trkpt lat="42.5433994" lon="12.6691729"><ele>201.0</ele><time>2026-04-30T05:42:22.767Z</time></trkpt><trkpt lat="42.5435173" lon="12.6690783"><ele>201.0</ele><time>2026-04-30T05:42:23.77Z</time></trkpt><trkpt lat="42.5436211" lon="12.6689961"><ele>201.0</ele><time>2026-04-30T05:42:24.773Z</time></trkpt><trkpt lat="42.5437254" lon="12.6689071"><ele>200.4</ele><time>2026-04-30T05:42:25.781Z</time></trkpt><trkpt lat="42.543816" lon="12.668819"><ele>199.8</ele><time>2026-04-30T05:42:26.788Z</time></trkpt><trkpt lat="42.5439081" lon="12.6687437"><ele>199.20000000000002</ele><time>2026-04-30T05:42:27.782Z</time></trkpt><trkpt lat="42.5439919" lon="12.6686775"><ele>198.60000000000002</ele><time>2026-04-30T05:42:28.784Z</time></trkpt><trkpt lat="42.5440684" lon="12.6686334"><ele>198.0</ele><time>2026-04-30T05:42:29.782Z</time></trkpt><trkpt lat="42.5441507" lon="12.6686075"><ele>197.85714285714286</ele><time>2026-04-30T05:42:30.794Z</time></trkpt><trkpt lat="42.5442368" lon="12.6685944"><ele>197.7142857142857</ele><time>2026-04-30T05:42:31.787Z</time></trkpt><trkpt lat="42.5443132" lon="12.6685882"><ele>197.57142857142856</ele><time>2026-04-30T05:42:32.804Z</time></trkpt><trkpt lat="42.5443866" lon="12.6685708"><ele>197.42857142857144</ele><time>2026-04-30T05:42:33.785Z</time></trkpt><trkpt lat="42.5444534" lon="12.668535"><ele>197.28571428571428</ele><time>2026-04-30T05:42:34.785Z</time></trkpt><trkpt lat="42.5445093" lon="12.6684921"><ele>197.14285714285714</ele><time>2026-04-30T05:42:35.776Z</time></trkpt><trkpt lat="42.5445583" lon="12.6684225"><ele>197.0</ele><time>2026-04-30T05:42:36.775Z</time></trkpt><trkpt lat="42.5446306" lon="12.668268"><ele>197.00000000000003</ele><time>2026-04-30T05:42:38.773Z</time></trkpt><trkpt lat="42.54468" lon="12.6681874"><ele>197.0</ele><time>2026-04-30T05:42:39.782Z</time></trkpt><trkpt lat="42.5447174" lon="12.6680971"><ele>197.0</ele><time>2026-04-30T05:42:40.77Z</time></trkpt><trkpt lat="42.5447388" lon="12.6680104"><ele>197.0</ele><time>2026-04-30T05:42:41.776Z</time></trkpt><trkpt lat="42.5447404" lon="12.6679135"><ele>197.00000000000003</ele><time>2026-04-30T05:42:42.772Z</time></trkpt><trkpt lat="42.5447387" lon="12.6677905"><ele>197.0</ele><time>2026-04-30T05:42:43.774Z</time></trkpt><trkpt lat="42.5447407" lon="12.6676582"><ele>195.39999999999998</ele><time>2026-04-30T05:42:44.772Z</time></trkpt><trkpt lat="42.5447521" lon="12.6675316"><ele>193.79999999999998</ele><time>2026-04-30T05:42:45.771Z</time></trkpt><trkpt lat="42.5447874" lon="12.6674098"><ele>192.2</ele><time>2026-04-30T05:42:46.77Z</time></trkpt><trkpt lat="42.5448294" lon="12.6672922"><ele>190.6</ele><time>2026-04-30T05:42:47.774Z</time></trkpt><trkpt lat="42.5448651" lon="12.667182"><ele>189.0</ele><time>2026-04-30T05:42:48.775Z</time></trkpt><trkpt lat="42.5448957" lon="12.6670874"><ele>189.0</ele><time>2026-04-30T05:42:49.778Z</time></trkpt><trkpt lat="42.5449364" lon="12.6670046"><ele>189.0</ele><time>2026-04-30T05:42:50.777Z</time></trkpt><trkpt lat="42.5449911" lon="12.6669323"><ele>189.0</ele><time>2026-04-30T05:42:51.781Z</time></trkpt><trkpt lat="42.5450681" lon="12.6668557"><ele>189.0</ele><time>2026-04-30T05:42:52.79Z</time></trkpt><trkpt lat="42.5451429" lon="12.6667714"><ele>189.0</ele><time>2026-04-30T05:42:53.786Z</time></trkpt><trkpt lat="42.5452037" lon="12.6666826"><ele>189.0</ele><time>2026-04-30T05:42:54.779Z</time></trkpt><trkpt lat="42.5452587" lon="12.6666022"><ele>188.39999999999998</ele><time>2026-04-30T05:42:55.782Z</time></trkpt><trkpt lat="42.5453242" lon="12.6665282"><ele>187.8</ele><time>2026-04-30T05:42:56.782Z</time></trkpt><trkpt lat="42.5453979" lon="12.6664645"><ele>187.2</ele><time>2026-04-30T05:42:57.78Z</time></trkpt><trkpt lat="42.5454811" lon="12.6664164"><ele>186.60000000000002</ele><time>2026-04-30T05:42:58.78Z</time></trkpt><trkpt lat="42.5455748" lon="12.6663642"><ele>186.0</ele><time>2026-04-30T05:42:59.782Z</time></trkpt><trkpt lat="42.5456679" lon="12.666296"><ele>185.20000000000002</ele><time>2026-04-30T05:43:00.794Z</time></trkpt><trkpt lat="42.5457638" lon="12.6662104"><ele>184.4</ele><time>2026-04-30T05:43:01.78Z</time></trkpt><trkpt lat="42.5458379" lon="12.6661201"><ele>183.6</ele><time>2026-04-30T05:43:02.786Z</time></trkpt><trkpt lat="42.5459013" lon="12.6660193"><ele>182.8</ele><time>2026-04-30T05:43:03.803Z</time></trkpt><trkpt lat="42.5459461" lon="12.6659127"><ele>182.0</ele><time>2026-04-30T05:43:04.789Z</time></trkpt><trkpt lat="42.5460019" lon="12.6658068"><ele>181.66666666666666</ele><time>2026-04-30T05:43:05.785Z</time></trkpt><trkpt lat="42.5460507" lon="12.6656962"><ele>181.33333333333331</ele><time>2026-04-30T05:43:06.784Z</time></trkpt><trkpt lat="42.5461099" lon="12.665596"><ele>181.0</ele><time>2026-04-30T05:43:07.793Z</time></trkpt><trkpt lat="42.5461594" lon="12.6655"><ele>180.66666666666666</ele><time>2026-04-30T05:43:08.789Z</time></trkpt><trkpt lat="42.546211" lon="12.6654034"><ele>180.33333333333334</ele><time>2026-04-30T05:43:09.786Z</time></trkpt><trkpt lat="42.5462609" lon="12.6653178"><ele>180.0</ele><time>2026-04-30T05:43:10.789Z</time></trkpt><trkpt lat="42.5463111" lon="12.665234"><ele>179.5</ele><time>2026-04-30T05:43:11.789Z</time></trkpt><trkpt lat="42.5463794" lon="12.6651438"><ele>179.0</ele><time>2026-04-30T05:43:12.785Z</time></trkpt><trkpt lat="42.5464456" lon="12.6650452"><ele>178.5</ele><time>2026-04-30T05:43:13.792Z</time></trkpt><trkpt lat="42.5465015" lon="12.6649389"><ele>178.0</ele><time>2026-04-30T05:43:14.793Z</time></trkpt><trkpt lat="42.5465518" lon="12.6648462"><ele>177.5</ele><time>2026-04-30T05:43:15.793Z</time></trkpt><trkpt lat="42.5465926" lon="12.6647633"><ele>177.0</ele><time>2026-04-30T05:43:16.792Z</time></trkpt><trkpt lat="42.5466483" lon="12.6646642"><ele>177.0</ele><time>2026-04-30T05:43:18.783Z</time></trkpt><trkpt lat="42.5467238" lon="12.6646154"><ele>177.0</ele><time>2026-04-30T05:43:21.789Z</time></trkpt><trkpt lat="42.5468344" lon="12.664668"><ele>177.0</ele><time>2026-04-30T05:43:23.777Z</time></trkpt><trkpt lat="42.5469033" lon="12.6646946"><ele>177.0</ele><time>2026-04-30T05:43:24.785Z</time></trkpt><trkpt lat="42.5469683" lon="12.6647429"><ele>177.0</ele><time>2026-04-30T05:43:25.779Z</time></trkpt><trkpt lat="42.5470373" lon="12.6647788"><ele>177.0</ele><time>2026-04-30T05:43:26.783Z</time></trkpt><trkpt lat="42.5471123" lon="12.6648032"><ele>176.39999999999998</ele><time>2026-04-30T05:43:27.771Z</time></trkpt><trkpt lat="42.5471949" lon="12.664831"><ele>175.79999999999998</ele><time>2026-04-30T05:43:28.772Z</time></trkpt><trkpt lat="42.5472868" lon="12.6648536"><ele>175.2</ele><time>2026-04-30T05:43:29.779Z</time></trkpt><trkpt lat="42.5473814" lon="12.6648666"><ele>174.6</ele><time>2026-04-30T05:43:30.796Z</time></trkpt><trkpt lat="42.5474775" lon="12.6648876"><ele>174.0</ele><time>2026-04-30T05:43:31.785Z</time></trkpt><trkpt lat="42.547582" lon="12.6649213"><ele>174.0</ele><time>2026-04-30T05:43:32.772Z</time></trkpt><trkpt lat="42.5476951" lon="12.6649498"><ele>174.0</ele><time>2026-04-30T05:43:33.779Z</time></trkpt><trkpt lat="42.5478143" lon="12.6649778"><ele>174.0</ele><time>2026-04-30T05:43:34.806Z</time></trkpt><trkpt lat="42.5479399" lon="12.6650132"><ele>174.0</ele><time>2026-04-30T05:43:35.787Z</time></trkpt><trkpt lat="42.5480634" lon="12.6650483"><ele>173.25</ele><time>2026-04-30T05:43:36.786Z</time></trkpt><trkpt lat="42.5481812" lon="12.6650889"><ele>172.5</ele><time>2026-04-30T05:43:37.781Z</time></trkpt><trkpt lat="42.5483016" lon="12.6651225"><ele>171.75</ele><time>2026-04-30T05:43:38.789Z</time></trkpt><trkpt lat="42.5484172" lon="12.6651569"><ele>171.0</ele><time>2026-04-30T05:43:39.795Z</time></trkpt><trkpt lat="42.5485279" lon="12.665204"><ele>171.0</ele><time>2026-04-30T05:43:40.796Z</time></trkpt><trkpt lat="42.5486301" lon="12.665258"><ele>171.0</ele><time>2026-04-30T05:43:41.792Z</time></trkpt><trkpt lat="42.5487315" lon="12.6653152"><ele>171.0</ele><time>2026-04-30T05:43:42.792Z</time></trkpt><trkpt lat="42.5488321" lon="12.6653724"><ele>171.0</ele><time>2026-04-30T05:43:43.782Z</time></trkpt><trkpt lat="42.5489263" lon="12.6654335"><ele>171.0</ele><time>2026-04-30T05:43:44.778Z</time></trkpt><trkpt lat="42.5490175" lon="12.6654833"><ele>171.20000000000002</ele><time>2026-04-30T05:43:45.783Z</time></trkpt><trkpt lat="42.549107" lon="12.6655366"><ele>171.4</ele><time>2026-04-30T05:43:46.785Z</time></trkpt><trkpt lat="42.5491929" lon="12.6655977"><ele>171.6</ele><time>2026-04-30T05:43:47.791Z</time></trkpt><trkpt lat="42.5492877" lon="12.665653"><ele>171.8</ele><time>2026-04-30T05:43:48.78Z</time></trkpt><trkpt lat="42.5493779" lon="12.6657055"><ele>172.0</ele><time>2026-04-30T05:43:49.789Z</time></trkpt><trkpt lat="42.5494787" lon="12.6657782"><ele>171.16666666666669</ele><time>2026-04-30T05:43:50.783Z</time></trkpt><trkpt lat="42.5495595" lon="12.6658469"><ele>170.33333333333334</ele><time>2026-04-30T05:43:51.783Z</time></trkpt><trkpt lat="42.5496368" lon="12.6659088"><ele>169.5</ele><time>2026-04-30T05:43:52.772Z</time></trkpt><trkpt lat="42.5496954" lon="12.6659686"><ele>168.66666666666666</ele><time>2026-04-30T05:43:53.769Z</time></trkpt><trkpt lat="42.5497486" lon="12.6660229"><ele>167.83333333333331</ele><time>2026-04-30T05:43:54.768Z</time></trkpt><trkpt lat="42.5497823" lon="12.6661103"><ele>167.0</ele><time>2026-04-30T05:43:56.777Z</time></trkpt><trkpt lat="42.5498687" lon="12.6660267"><ele>167.0</ele><time>2026-04-30T05:43:59.779Z</time></trkpt><trkpt lat="42.5499092" lon="12.6659326"><ele>167.0</ele><time>2026-04-30T05:44:00.801Z</time></trkpt><trkpt lat="42.5499551" lon="12.6658222"><ele>167.0</ele><time>2026-04-30T05:44:01.783Z</time></trkpt><trkpt lat="42.5500105" lon="12.6656973"><ele>167.0</ele><time>2026-04-30T05:44:02.775Z</time></trkpt><trkpt lat="42.5500693" lon="12.6655772"><ele>167.0</ele><time>2026-04-30T05:44:03.774Z</time></trkpt><trkpt lat="42.5501323" lon="12.6654515"><ele>167.0</ele><time>2026-04-30T05:44:04.775Z</time></trkpt><trkpt lat="42.5502092" lon="12.6653243"><ele>167.0</ele><time>2026-04-30T05:44:05.791Z</time></trkpt><trkpt lat="42.550284" lon="12.6651998"><ele>167.0</ele><time>2026-04-30T05:44:06.777Z</time></trkpt><trkpt lat="42.5503643" lon="12.6650654"><ele>167.0</ele><time>2026-04-30T05:44:07.78Z</time></trkpt><trkpt lat="42.5504493" lon="12.6649265"><ele>165.5</ele><time>2026-04-30T05:44:08.771Z</time></trkpt><trkpt lat="42.5505379" lon="12.6647891"><ele>164.0</ele><time>2026-04-30T05:44:09.77Z</time></trkpt><trkpt lat="42.5506265" lon="12.6646562"><ele>162.5</ele><time>2026-04-30T05:44:10.766Z</time></trkpt><trkpt lat="42.550723" lon="12.6645303"><ele>161.0</ele><time>2026-04-30T05:44:11.767Z</time></trkpt><trkpt lat="42.5508246" lon="12.6644107"><ele>160.75</ele><time>2026-04-30T05:44:12.763Z</time></trkpt><trkpt lat="42.5509189" lon="12.6642907"><ele>160.5</ele><time>2026-04-30T05:44:13.766Z</time></trkpt><trkpt lat="42.5510111" lon="12.6641812"><ele>160.25</ele><time>2026-04-30T05:44:14.777Z</time></trkpt><trkpt lat="42.5511032" lon="12.6640674"><ele>160.0</ele><time>2026-04-30T05:44:15.766Z</time></trkpt><trkpt lat="42.5512042" lon="12.6639431"><ele>159.25</ele><time>2026-04-30T05:44:16.767Z</time></trkpt><trkpt lat="42.5513095" lon="12.6638322"><ele>158.5</ele><time>2026-04-30T05:44:17.768Z</time></trkpt><trkpt lat="42.5514194" lon="12.6637307"><ele>157.75</ele><time>2026-04-30T05:44:18.778Z</time></trkpt><trkpt lat="42.5515018" lon="12.6636219"><ele>157.0</ele><time>2026-04-30T05:44:19.774Z</time></trkpt><trkpt lat="42.5516041" lon="12.6635599"><ele>157.0</ele><time>2026-04-30T05:44:20.778Z</time></trkpt><trkpt lat="42.5517093" lon="12.663508"><ele>157.0</ele><time>2026-04-30T05:44:21.78Z</time></trkpt><trkpt lat="42.5518231" lon="12.6634606"><ele>157.0</ele><time>2026-04-30T05:44:22.766Z</time></trkpt><trkpt lat="42.5519333" lon="12.6634093"><ele>157.0</ele><time>2026-04-30T05:44:23.777Z</time></trkpt><trkpt lat="42.5520435" lon="12.6634673"><ele>156.79999999999998</ele><time>2026-04-30T05:44:24.774Z</time></trkpt><trkpt lat="42.5521305" lon="12.6634668"><ele>156.6</ele><time>2026-04-30T05:44:25.77Z</time></trkpt><trkpt lat="42.5522057" lon="12.6634824"><ele>156.39999999999998</ele><time>2026-04-30T05:44:26.765Z</time></trkpt><trkpt lat="42.5522787" lon="12.6634968"><ele>156.2</ele><time>2026-04-30T05:44:27.761Z</time></trkpt><trkpt lat="42.5524046" lon="12.6634988"><ele>156.0</ele><time>2026-04-30T05:44:29.762Z</time></trkpt><trkpt lat="42.5525247" lon="12.6635101"><ele>156.0</ele><time>2026-04-30T05:44:31.761Z</time></trkpt><trkpt lat="42.5526225" lon="12.6634929"><ele>156.0</ele><time>2026-04-30T05:44:33.767Z</time></trkpt><trkpt lat="42.5527305" lon="12.6634248"><ele>156.0</ele><time>2026-04-30T05:44:35.772Z</time></trkpt><trkpt lat="42.5528417" lon="12.6633507"><ele>156.0</ele><time>2026-04-30T05:44:37.776Z</time></trkpt><trkpt lat="42.5529667" lon="12.6632969"><ele>155.33333333333334</ele><time>2026-04-30T05:44:39.785Z</time></trkpt><trkpt lat="42.5530336" lon="12.6632781"><ele>154.66666666666666</ele><time>2026-04-30T05:44:40.785Z</time></trkpt><trkpt lat="42.5531195" lon="12.6632778"><ele>154.0</ele><time>2026-04-30T05:44:41.785Z</time></trkpt><trkpt lat="42.5531951" lon="12.663273"><ele>153.33333333333331</ele><time>2026-04-30T05:44:42.782Z</time></trkpt><trkpt lat="42.5532828" lon="12.6632614"><ele>152.66666666666666</ele><time>2026-04-30T05:44:43.791Z</time></trkpt><trkpt lat="42.5533704" lon="12.6632525"><ele>152.0</ele><time>2026-04-30T05:44:44.789Z</time></trkpt><trkpt lat="42.5534707" lon="12.6632371"><ele>152.0</ele><time>2026-04-30T05:44:45.779Z</time></trkpt><trkpt lat="42.5535678" lon="12.6632325"><ele>152.0</ele><time>2026-04-30T05:44:46.79Z</time></trkpt><trkpt lat="42.5536605" lon="12.6632325"><ele>152.0</ele><time>2026-04-30T05:44:47.785Z</time></trkpt><trkpt lat="42.5537425" lon="12.6632012"><ele>152.0</ele><time>2026-04-30T05:44:49.781Z</time></trkpt><trkpt lat="42.553805" lon="12.6631887"><ele>152.0</ele><time>2026-04-30T05:44:55.803Z</time></trkpt><trkpt lat="42.5538837" lon="12.6632112"><ele>152.0</ele><time>2026-04-30T05:45:18.798Z</time></trkpt><trkpt lat="42.553944" lon="12.6630909"><ele>152.5</ele><time>2026-04-30T05:45:21.777Z</time></trkpt><trkpt lat="42.5539486" lon="12.6629807"><ele>153.0</ele><time>2026-04-30T05:45:22.762Z</time></trkpt><trkpt lat="42.5539631" lon="12.6627956"><ele>153.5</ele><time>2026-04-30T05:45:23.769Z</time></trkpt><trkpt lat="42.5539621" lon="12.6626133"><ele>154.0</ele><time>2026-04-30T05:45:24.764Z</time></trkpt><trkpt lat="42.5539557" lon="12.6624343"><ele>154.0</ele><time>2026-04-30T05:45:25.77Z</time></trkpt><trkpt lat="42.5539468" lon="12.6622429"><ele>154.0</ele><time>2026-04-30T05:45:26.767Z</time></trkpt><trkpt lat="42.5539433" lon="12.662038"><ele>154.0</ele><time>2026-04-30T05:45:27.768Z</time></trkpt><trkpt lat="42.5539428" lon="12.661822"><ele>154.33333333333334</ele><time>2026-04-30T05:45:28.775Z</time></trkpt><trkpt lat="42.553943" lon="12.6616036"><ele>154.66666666666666</ele><time>2026-04-30T05:45:29.776Z</time></trkpt><trkpt lat="42.5539223" lon="12.6613715"><ele>155.0</ele><time>2026-04-30T05:45:30.786Z</time></trkpt><trkpt lat="42.5539579" lon="12.6611452"><ele>154.33333333333331</ele><time>2026-04-30T05:45:31.771Z</time></trkpt><trkpt lat="42.5539917" lon="12.6609304"><ele>153.66666666666666</ele><time>2026-04-30T05:45:32.771Z</time></trkpt><trkpt lat="42.5540364" lon="12.6607376"><ele>153.0</ele><time>2026-04-30T05:45:33.772Z</time></trkpt><trkpt lat="42.5541032" lon="12.6605361"><ele>153.0</ele><time>2026-04-30T05:45:34.769Z</time></trkpt><trkpt lat="42.5541626" lon="12.6603473"><ele>153.0</ele><time>2026-04-30T05:45:35.765Z</time></trkpt><trkpt lat="42.554192" lon="12.6602013"><ele>153.0</ele><time>2026-04-30T05:45:36.764Z</time></trkpt><trkpt lat="42.5542383" lon="12.6600448"><ele>153.0</ele><time>2026-04-30T05:45:37.766Z</time></trkpt><trkpt lat="42.5543267" lon="12.6598995"><ele>153.0</ele><time>2026-04-30T05:45:38.799Z</time></trkpt><trkpt lat="42.5544139" lon="12.6597497"><ele>153.0</ele><time>2026-04-30T05:45:39.762Z</time></trkpt><trkpt lat="42.5545178" lon="12.6596274"><ele>153.0</ele><time>2026-04-30T05:45:40.77Z</time></trkpt><trkpt lat="42.5546113" lon="12.6595248"><ele>153.0</ele><time>2026-04-30T05:45:41.762Z</time></trkpt><trkpt lat="42.5547176" lon="12.6594505"><ele>152.5</ele><time>2026-04-30T05:45:42.771Z</time></trkpt><trkpt lat="42.5548285" lon="12.6593878"><ele>152.0</ele><time>2026-04-30T05:45:43.763Z</time></trkpt><trkpt lat="42.5549455" lon="12.6593376"><ele>151.5</ele><time>2026-04-30T05:45:44.771Z</time></trkpt><trkpt lat="42.5550549" lon="12.6592565"><ele>151.0</ele><time>2026-04-30T05:45:45.777Z</time></trkpt><trkpt lat="42.5551461" lon="12.6591468"><ele>151.0</ele><time>2026-04-30T05:45:46.782Z</time></trkpt><trkpt lat="42.5552151" lon="12.6590186"><ele>151.0</ele><time>2026-04-30T05:45:47.776Z</time></trkpt><trkpt lat="42.555236" lon="12.6588795"><ele>151.0</ele><time>2026-04-30T05:45:48.784Z</time></trkpt><trkpt lat="42.5552405" lon="12.65874"><ele>151.0</ele><time>2026-04-30T05:45:49.775Z</time></trkpt><trkpt lat="42.5552296" lon="12.6586233"><ele>151.0</ele><time>2026-04-30T05:45:50.78Z</time></trkpt><trkpt lat="42.555261" lon="12.6585476"><ele>151.2</ele><time>2026-04-30T05:45:51.783Z</time></trkpt><trkpt lat="42.5553798" lon="12.6585014"><ele>151.39999999999998</ele><time>2026-04-30T05:45:53.769Z</time></trkpt><trkpt lat="42.5554664" lon="12.6585191"><ele>151.6</ele><time>2026-04-30T05:45:54.758Z</time></trkpt><trkpt lat="42.5555757" lon="12.6585552"><ele>151.79999999999998</ele><time>2026-04-30T05:45:55.752Z</time></trkpt><trkpt lat="42.5556722" lon="12.6585843"><ele>152.0</ele><time>2026-04-30T05:45:56.754Z</time></trkpt><trkpt lat="42.5557784" lon="12.6586183"><ele>151.4</ele><time>2026-04-30T05:45:57.754Z</time></trkpt><trkpt lat="42.5558751" lon="12.658646"><ele>150.79999999999998</ele><time>2026-04-30T05:45:58.761Z</time></trkpt><trkpt lat="42.5559847" lon="12.6586636"><ele>150.2</ele><time>2026-04-30T05:45:59.762Z</time></trkpt><trkpt lat="42.5560983" lon="12.6586836"><ele>149.6</ele><time>2026-04-30T05:46:00.766Z</time></trkpt><trkpt lat="42.5561967" lon="12.6586961"><ele>149.0</ele><time>2026-04-30T05:46:01.758Z</time></trkpt><trkpt lat="42.5562926" lon="12.6586925"><ele>148.0</ele><time>2026-04-30T05:46:02.758Z</time></trkpt><trkpt lat="42.5564016" lon="12.6586544"><ele>147.0</ele><time>2026-04-30T05:46:03.758Z</time></trkpt><trkpt lat="42.5565035" lon="12.6586"><ele>146.0</ele><time>2026-04-30T05:46:04.757Z</time></trkpt><trkpt lat="42.5566026" lon="12.6585403"><ele>145.0</ele><time>2026-04-30T05:46:05.766Z</time></trkpt><trkpt lat="42.5566862" lon="12.6584656"><ele>144.0</ele><time>2026-04-30T05:46:06.775Z</time></trkpt><trkpt lat="42.5567521" lon="12.6583655"><ele>144.0</ele><time>2026-04-30T05:46:07.781Z</time></trkpt><trkpt lat="42.5568014" lon="12.6582435"><ele>144.0</ele><time>2026-04-30T05:46:08.79Z</time></trkpt><trkpt lat="42.5568646" lon="12.6581195"><ele>144.0</ele><time>2026-04-30T05:46:09.782Z</time></trkpt><trkpt lat="42.556928" lon="12.658016"><ele>144.0</ele><time>2026-04-30T05:46:10.783Z</time></trkpt><trkpt lat="42.5569931" lon="12.6579212"><ele>144.0</ele><time>2026-04-30T05:46:11.779Z</time></trkpt><trkpt lat="42.557043" lon="12.6578273"><ele>142.5</ele><time>2026-04-30T05:46:12.784Z</time></trkpt><trkpt lat="42.5570958" lon="12.6577201"><ele>141.0</ele><time>2026-04-30T05:46:13.772Z</time></trkpt><trkpt lat="42.557145" lon="12.6576329"><ele>139.5</ele><time>2026-04-30T05:46:14.771Z</time></trkpt><trkpt lat="42.5571999" lon="12.657554"><ele>138.0</ele><time>2026-04-30T05:46:15.784Z</time></trkpt><trkpt lat="42.5572479" lon="12.6574741"><ele>136.5</ele><time>2026-04-30T05:46:16.788Z</time></trkpt><trkpt lat="42.5573069" lon="12.6573714"><ele>135.0</ele><time>2026-04-30T05:46:17.794Z</time></trkpt><trkpt lat="42.5573669" lon="12.6572709"><ele>135.0</ele><time>2026-04-30T05:46:18.793Z</time></trkpt><trkpt lat="42.5574297" lon="12.6571764"><ele>135.0</ele><time>2026-04-30T05:46:19.796Z</time></trkpt><trkpt lat="42.5575001" lon="12.6570818"><ele>135.0</ele><time>2026-04-30T05:46:20.776Z</time></trkpt><trkpt lat="42.5575677" lon="12.6569715"><ele>135.0</ele><time>2026-04-30T05:46:21.788Z</time></trkpt><trkpt lat="42.5576341" lon="12.6568549"><ele>135.0</ele><time>2026-04-30T05:46:22.783Z</time></trkpt><trkpt lat="42.5577061" lon="12.6567303"><ele>133.4</ele><time>2026-04-30T05:46:23.784Z</time></trkpt><trkpt lat="42.5577651" lon="12.6566118"><ele>131.8</ele><time>2026-04-30T05:46:24.778Z</time></trkpt><trkpt lat="42.5578344" lon="12.656514"><ele>130.2</ele><time>2026-04-30T05:46:25.77Z</time></trkpt><trkpt lat="42.5579021" lon="12.6563966"><ele>128.6</ele><time>2026-04-30T05:46:26.767Z</time></trkpt><trkpt lat="42.5579629" lon="12.656272"><ele>127.0</ele><time>2026-04-30T05:46:27.771Z</time></trkpt><trkpt lat="42.5579898" lon="12.656137"><ele>127.0</ele><time>2026-04-30T05:46:28.772Z</time></trkpt><trkpt lat="42.5579901" lon="12.6559942"><ele>126.99999999999999</ele><time>2026-04-30T05:46:29.775Z</time></trkpt><trkpt lat="42.5579814" lon="12.6558511"><ele>126.99999999999999</ele><time>2026-04-30T05:46:30.783Z</time></trkpt><trkpt lat="42.5579669" lon="12.6557168"><ele>127.0</ele><time>2026-04-30T05:46:31.759Z</time></trkpt><trkpt lat="42.5579442" lon="12.6555946"><ele>127.0</ele><time>2026-04-30T05:46:32.771Z</time></trkpt><trkpt lat="42.5579323" lon="12.6554918"><ele>127.0</ele><time>2026-04-30T05:46:33.766Z</time></trkpt><trkpt lat="42.5578927" lon="12.6553553"><ele>126.99999999999999</ele><time>2026-04-30T05:46:35.764Z</time></trkpt><trkpt lat="42.5579885" lon="12.655301"><ele>126.99999999999999</ele><time>2026-04-30T05:46:39.779Z</time></trkpt><trkpt lat="42.558098" lon="12.6553476"><ele>127.0</ele><time>2026-04-30T05:46:41.766Z</time></trkpt><trkpt lat="42.5581627" lon="12.6554112"><ele>127.0</ele><time>2026-04-30T05:46:42.77Z</time></trkpt><trkpt lat="42.5582319" lon="12.6554787"><ele>127.0</ele><time>2026-04-30T05:46:43.771Z</time></trkpt><trkpt lat="42.5582993" lon="12.6555614"><ele>126.99999999999999</ele><time>2026-04-30T05:46:44.77Z</time></trkpt><trkpt lat="42.5583728" lon="12.6556618"><ele>126.99999999999999</ele><time>2026-04-30T05:46:45.777Z</time></trkpt><trkpt lat="42.5584296" lon="12.6557665"><ele>127.0</ele><time>2026-04-30T05:46:46.776Z</time></trkpt><trkpt lat="42.5584809" lon="12.6558675"><ele>127.0</ele><time>2026-04-30T05:46:47.779Z</time></trkpt><trkpt lat="42.5585299" lon="12.6559634"><ele>127.0</ele><time>2026-04-30T05:46:48.775Z</time></trkpt><trkpt lat="42.5585879" lon="12.6560468"><ele>126.99999999999999</ele><time>2026-04-30T05:46:49.783Z</time></trkpt><trkpt lat="42.5586359" lon="12.6561161"><ele>126.99999999999999</ele><time>2026-04-30T05:46:50.782Z</time></trkpt><trkpt lat="42.5586696" lon="12.6562317"><ele>127.0</ele><time>2026-04-30T05:46:52.774Z</time></trkpt><trkpt lat="42.558646" lon="12.6563728"><ele>127.0</ele><time>2026-04-30T05:46:54.767Z</time></trkpt><trkpt lat="42.5586197" lon="12.6564999"><ele>127.0</ele><time>2026-04-30T05:46:55.759Z</time></trkpt><trkpt lat="42.5585953" lon="12.656641"><ele>126.99999999999999</ele><time>2026-04-30T05:46:56.763Z</time></trkpt><trkpt lat="42.5586095" lon="12.6567837"><ele>126.99999999999999</ele><time>2026-04-30T05:46:57.762Z</time></trkpt><trkpt lat="42.5586477" lon="12.6569229"><ele>127.0</ele><time>2026-04-30T05:46:58.765Z</time></trkpt><trkpt lat="42.5587158" lon="12.6570551"><ele>127.0</ele><time>2026-04-30T05:46:59.758Z</time></trkpt><trkpt lat="42.5588061" lon="12.6571489"><ele>127.0</ele><time>2026-04-30T05:47:00.784Z</time></trkpt><trkpt lat="42.5589237" lon="12.657196"><ele>127.0</ele><time>2026-04-30T05:47:01.772Z</time></trkpt><trkpt lat="42.5590613" lon="12.6572044"><ele>127.0</ele><time>2026-04-30T05:47:02.775Z</time></trkpt><trkpt lat="42.5592196" lon="12.6571715"><ele>127.0</ele><time>2026-04-30T05:47:03.764Z</time></trkpt><trkpt lat="42.5593362" lon="12.6570788"><ele>127.75</ele><time>2026-04-30T05:47:04.766Z</time></trkpt><trkpt lat="42.5594172" lon="12.6569451"><ele>128.5</ele><time>2026-04-30T05:47:05.759Z</time></trkpt><trkpt lat="42.5594861" lon="12.6567913"><ele>129.25</ele><time>2026-04-30T05:47:06.767Z</time></trkpt><trkpt lat="42.559479" lon="12.6566077"><ele>130.0</ele><time>2026-04-30T05:47:07.763Z</time></trkpt><trkpt lat="42.5594385" lon="12.6564088"><ele>130.0</ele><time>2026-04-30T05:47:08.772Z</time></trkpt><trkpt lat="42.5593672" lon="12.6562053"><ele>130.0</ele><time>2026-04-30T05:47:09.777Z</time></trkpt><trkpt lat="42.5592887" lon="12.6559846"><ele>130.0</ele><time>2026-04-30T05:47:10.788Z</time></trkpt><trkpt lat="42.5591997" lon="12.6556788"><ele>129.66666666666669</ele><time>2026-04-30T05:47:11.759Z</time></trkpt><trkpt lat="42.5592087" lon="12.6554"><ele>129.33333333333334</ele><time>2026-04-30T05:47:12.753Z</time></trkpt><trkpt lat="42.559276" lon="12.6551228"><ele>129.0</ele><time>2026-04-30T05:47:13.755Z</time></trkpt><trkpt lat="42.5593451" lon="12.6548236"><ele>128.0</ele><time>2026-04-30T05:47:14.749Z</time></trkpt><trkpt lat="42.5594075" lon="12.6545547"><ele>127.0</ele><time>2026-04-30T05:47:15.762Z</time></trkpt><trkpt lat="42.559478" lon="12.6542736"><ele>126.0</ele><time>2026-04-30T05:47:16.757Z</time></trkpt><trkpt lat="42.5595551" lon="12.6540146"><ele>126.0</ele><time>2026-04-30T05:47:17.754Z</time></trkpt><trkpt lat="42.5596295" lon="12.6537818"><ele>126.0</ele><time>2026-04-30T05:47:18.754Z</time></trkpt><trkpt lat="42.5597158" lon="12.6535148"><ele>126.0</ele><time>2026-04-30T05:47:19.766Z</time></trkpt><trkpt lat="42.5598073" lon="12.6532461"><ele>125.66666666666666</ele><time>2026-04-30T05:47:20.766Z</time></trkpt><trkpt lat="42.5598846" lon="12.6529832"><ele>125.33333333333333</ele><time>2026-04-30T05:47:21.769Z</time></trkpt><trkpt lat="42.5599318" lon="12.6527421"><ele>125.0</ele><time>2026-04-30T05:47:22.767Z</time></trkpt><trkpt lat="42.5599993" lon="12.6525642"><ele>125.0</ele><time>2026-04-30T05:47:23.77Z</time></trkpt><trkpt lat="42.5600448" lon="12.6523866"><ele>125.0</ele><time>2026-04-30T05:47:24.777Z</time></trkpt><trkpt lat="42.5600789" lon="12.6522689"><ele>125.0</ele><time>2026-04-30T05:47:25.763Z</time></trkpt><trkpt lat="42.560118" lon="12.6521367"><ele>125.0</ele><time>2026-04-30T05:47:26.76Z</time></trkpt><trkpt lat="42.5601587" lon="12.6519938"><ele>125.0</ele><time>2026-04-30T05:47:28.762Z</time></trkpt><trkpt lat="42.5602217" lon="12.65195"><ele>124.83333333333333</ele><time>2026-04-30T05:47:30.775Z</time></trkpt><trkpt lat="42.5602885" lon="12.6519037"><ele>124.66666666666666</ele><time>2026-04-30T05:47:32.77Z</time></trkpt><trkpt lat="42.5603895" lon="12.6519239"><ele>124.5</ele><time>2026-04-30T05:47:34.762Z</time></trkpt><trkpt lat="42.5604561" lon="12.6519085"><ele>124.33333333333334</ele><time>2026-04-30T05:47:36.77Z</time></trkpt><trkpt lat="42.5604846" lon="12.6517838"><ele>124.16666666666667</ele><time>2026-04-30T05:47:38.761Z</time></trkpt><trkpt lat="42.560502" lon="12.6516801"><ele>124.0</ele><time>2026-04-30T05:47:39.755Z</time></trkpt><trkpt lat="42.5605295" lon="12.6515849"><ele>124.0</ele><time>2026-04-30T05:47:40.751Z</time></trkpt><trkpt lat="42.5605776" lon="12.651462"><ele>124.0</ele><time>2026-04-30T05:47:41.773Z</time></trkpt><trkpt lat="42.5606283" lon="12.6513477"><ele>124.0</ele><time>2026-04-30T05:47:42.763Z</time></trkpt><trkpt lat="42.5606988" lon="12.6512747"><ele>124.0</ele><time>2026-04-30T05:47:43.762Z</time></trkpt><trkpt lat="42.5607559" lon="12.6512141"><ele>124.0</ele><time>2026-04-30T05:47:44.771Z</time></trkpt><trkpt lat="42.5608252" lon="12.6510924"><ele>124.2</ele><time>2026-04-30T05:47:46.776Z</time></trkpt><trkpt lat="42.5609033" lon="12.6509671"><ele>124.4</ele><time>2026-04-30T05:47:48.784Z</time></trkpt><trkpt lat="42.5609637" lon="12.650884"><ele>124.6</ele><time>2026-04-30T05:47:49.78Z</time></trkpt><trkpt lat="42.5610349" lon="12.6508263"><ele>124.8</ele><time>2026-04-30T05:47:50.778Z</time></trkpt><trkpt lat="42.5610993" lon="12.6507508"><ele>125.0</ele><time>2026-04-30T05:47:51.789Z</time></trkpt><trkpt lat="42.5611755" lon="12.6506675"><ele>126.2</ele><time>2026-04-30T05:47:52.775Z</time></trkpt><trkpt lat="42.5612498" lon="12.650566"><ele>127.4</ele><time>2026-04-30T05:47:53.769Z</time></trkpt><trkpt lat="42.5613139" lon="12.6504536"><ele>128.6</ele><time>2026-04-30T05:47:54.758Z</time></trkpt><trkpt lat="42.5613882" lon="12.6503436"><ele>129.8</ele><time>2026-04-30T05:47:55.748Z</time></trkpt><trkpt lat="42.5614692" lon="12.6502407"><ele>131.0</ele><time>2026-04-30T05:47:56.744Z</time></trkpt><trkpt lat="42.5615188" lon="12.6501624"><ele>131.33333333333331</ele><time>2026-04-30T05:47:57.753Z</time></trkpt><trkpt lat="42.5615889" lon="12.6501003"><ele>131.66666666666666</ele><time>2026-04-30T05:47:58.753Z</time></trkpt><trkpt lat="42.5616475" lon="12.6500522"><ele>132.0</ele><time>2026-04-30T05:47:59.756Z</time></trkpt><trkpt lat="42.5617189" lon="12.6500069"><ele>132.33333333333334</ele><time>2026-04-30T05:48:00.766Z</time></trkpt><trkpt lat="42.561793" lon="12.6499345"><ele>132.66666666666669</ele><time>2026-04-30T05:48:01.754Z</time></trkpt><trkpt lat="42.5618845" lon="12.6498717"><ele>133.0</ele><time>2026-04-30T05:48:03.755Z</time></trkpt><trkpt lat="42.5619576" lon="12.6498718"><ele>133.0</ele><time>2026-04-30T05:48:05.756Z</time></trkpt><trkpt lat="42.5620448" lon="12.6499156"><ele>134.0</ele><time>2026-04-30T05:48:07.748Z</time></trkpt><trkpt lat="42.562116" lon="12.6499951"><ele>134.0</ele><time>2026-04-30T05:48:09.745Z</time></trkpt><trkpt lat="42.5621767" lon="12.6499677"><ele>134.0</ele><time>2026-04-30T05:48:12.766Z</time></trkpt><trkpt lat="42.5622577" lon="12.6498482"><ele>134.0</ele><time>2026-04-30T05:48:14.751Z</time></trkpt></trkseg></trk></gpx>